• Join FlightAware (Why Join?)
  • Login
  • US Flag 
02:11AM EDT


 

Airport Tracker/Info


-or-


 

Live Flight TrackerFlight Track Log ✈ N319EE ✈ 01-Oct-2013 ✈ KFRG - KROC

Flight Track Log - Related Links

Times and Time Zones

All times are in EDT time to prevent confusion due to time zone crossing. See the N319EE flight status page for this flight to view local times or setup timezone preferences in your user account.

Time Position Orientation Groundspeed Altitude Reporting Facility
EDT Latitude Longitude Course Direction KTS MPH feet Rate Location/Type
04:12PM 40.7667 -73.4333 37° Northeast 159 183 1,600  Level New York TRACON
04:13PM 40.8000 -73.4000 37° Northeast 180 207 3,500 2,100 Climbing New York TRACON
04:14PM 40.8500 -73.3667 27° Northeast 170 196 5,800 2,100 Climbing New York TRACON
04:15PM 40.8833 -73.3500 21° North 171 197 7,800 1,800 Climbing New York TRACON
04:16PM 40.9333 -73.3500 360° North 175 201 9,400 1,800 Climbing New York TRACON
04:17PM 40.9667 -73.4000 311° West 174 200 11,400 1,260 Climbing New York TRACON
04:18PM 40.9833 -73.4667 288° West 216 249 12,000 300 Climbing New York TRACON
04:19PM 41.0167 -73.5333 304° West 240 276 12,000  Level New York TRACON
04:20PM 41.0500 -73.6167 298° West 243 280 12,000  Level New York TRACON
04:21PM 41.0833 -73.7000 298° West 244 281 12,000  Level New York TRACON
04:22PM 41.1167 -73.7833 298° West 243 280 12,000  Level New York TRACON
04:23PM 41.1500 -73.8667 298° West 241 277 12,000  Level New York TRACON
04:24PM 41.1614 -73.9156 287° West 243 280 12,000  Level New York Center
04:25PM 41.1867 -73.9831 296° West 243 280 12,000  Level New York Center
04:26PM 41.2197 -74.0700 297° West 243 280 12,000  Level New York Center
04:27PM 41.2447 -74.1431 294° West 243 280 12,000  Level New York Center
04:28PM 41.2775 -74.2303 297° West 243 280 12,000  Level New York Center
04:29PM 41.3064 -74.3089 296° West 243 280 12,000  Level New York Center
04:30PM 41.3353 -74.3881 296° West 243 280 12,000  Level New York Center
04:31PM 41.3642 -74.4669 296° West 243 280 12,000  Level New York Center
04:32PM 41.3928 -74.5458 296° West 243 280 12,000  Level New York Center
04:33PM 41.4236 -74.6222 298° West 238 274 12,000  Level New York Center
04:34PM 41.4608 -74.6936 305° West 243 280 12,000  Level New York Center
04:35PM 41.4978 -74.7706 303° West 238 274 12,000  Level New York Center
04:36PM 41.5331 -74.8419 303° West 243 280 12,000  Level New York Center
04:37PM 41.5719 -74.9164 305° West 243 280 12,000  Level New York Center
04:38PM 41.6089 -74.9936 303° West 248 285 12,000  Level New York Center
04:39PM 41.6419 -75.0594 304° West 243 280 12,000  Level New York Center
04:40PM 41.6786 -75.1369 302° West 243 280 12,000  Level New York Center
04:41PM 41.7172 -75.2200 302° West 243 280 12,000  Level New York Center
04:42PM 41.7561 -75.2947 305° West 243 280 12,000  Level New York Center
04:43PM 41.7886 -75.3667 301° West 243 280 12,000  Level New York Center
04:44PM 41.8253 -75.4414 303° West 243 280 12,100  Climbing New York Center
04:45PM 41.8636 -75.5222 303° West 243 280 12,100  Level New York Center
04:46PM 41.9003 -75.5972 303° West 243 280 12,100  Level New York Center
04:47PM 41.9367 -75.6750 302° West 243 280 12,100  Level New York Center
04:48PM 41.9731 -75.7503 303° West 243 280 12,100  Level New York Center
04:49PM 42.0072 -75.8256 301° West 243 280 12,100  Level New York Center
04:50PM 42.0419 -75.8925 305° West 243 280 12,100  Level New York Center
04:51PM 42.0761 -75.9678 301° West 243 280 12,100  Level New York Center
04:52PM 42.1122 -76.0431 303° West 243 280 12,100  Level New York Center
04:53PM 42.1483 -76.1217 302° West 243 280 12,100  Level New York Center
04:54PM 42.1911 -76.1922 309° West 243 280 12,100  Level New York Center
04:55PM 42.2356 -76.2631 310° West 243 280 12,100  Level New York Center
04:56PM 42.2783 -76.3283 312° West 243 280 12,100 -60 Level New York Center
04:57PM 42.3406 -76.4231 312° West 241 277 12,000 -60 Descending Cleveland Center
04:58PM 42.3836 -76.4925 310° West 242 278 12,000  Level Cleveland Center
04:59PM 42.4297 -76.5628 312° West 248 285 12,000  Level Cleveland Center
05:00PM 42.4828 -76.6472 310° West 244 281 12,000  Level Cleveland Center
05:01PM 42.5267 -76.7181 310° West 243 280 12,000  Level Cleveland Center
05:02PM 42.5711 -76.7875 311° West 244 281 12,000  Level Cleveland Center
05:03PM 42.6150 -76.8589 310° West 246 283 12,000 -240 Level Cleveland Center
05:04PM 42.6506 -76.9150 311° West 248 285 11,600 -720 Descending Cleveland Center
05:04PM 42.6603 -76.9300 311° West 248 285 11,300 -720 Descending Cleveland Center
05:05PM 42.7111 -77.0133 310° West 262 302 10,700 -540 Descending Cleveland Center
05:05PM 42.7067 -77.0053 127° Southeast 258 297 10,800 -1,200 Climbing Cleveland Center
05:06PM 42.7611 -77.0808 314° West 255 293 9,500 -1,380 Descending Cleveland Center
05:06PM 42.7658 -77.0886 310° West 257 296 9,400 -1,500 Descending Cleveland Center
05:07PM 42.8111 -77.1483 316° Northwest 255 293 8,000 -1,440 Descending Cleveland Center
05:07PM 42.8156 -77.1547 313° West 254 292 7,900 -1,380 Descending Cleveland Center
05:08PM 42.8647 -77.2197 316° Northwest 250 288 6,400 -1,260 Descending Cleveland Center
05:09PM 42.9103 -77.2817 315° West 241 277 5,400 -1,080 Descending Cleveland Center
05:09PM 42.9186 -77.2911 320° Northwest 231 266 5,300 -1,320 Descending Cleveland Center
05:10PM 42.9631 -77.3517 315° West 242 278 4,200 -900 Descending Cleveland Center
05:10PM 42.9572 -77.3442 137° Southeast 237 273 4,400 -900 Climbing Cleveland Center
05:11PM 43.0114 -77.4164 316° Northwest 241 277 3,300 -1,200 Descending Cleveland Center
05:11PM 43.0144 -77.4214 310° West 242 278 3,200 -600 Descending Cleveland Center
05:12PM 43.0567 -77.4792 315° West 227 261 2,600 -360 Descending Cleveland Center
05:13PM 43.0969 -77.5319 316° Northwest 209 241 2,500 -300 Descending Cleveland Center
05:14PM 43.1250 -77.5733 313° West 176 203 2,100 -540 Descending Cleveland Center
05:14PM 43.1300 -77.5836 304° West 196 226 2,000 -900 Descending Cleveland Center
05:15PM 43.1356 -77.6197 282° West 136 157 1,300 -900 Descending Cleveland Center
05:16PM 43.1300 -77.6303 234° Southwest 162 186 1,100 -420 Descending Cleveland Center
05:17PM 43.1136 -77.6753 243° Southwest 143 165 700 -420 Descending Cleveland Center